sensor_id;sensor_type;location;lat;lon;timestamp;temperature;humidity
3300;DHT22;1662;49.310;8.134;2023-05-21T00:00:14;17.70;99.90
3300;DHT22;1662;49.310;8.134;2023-05-21T00:02:40;17.60;99.90
3300;DHT22;1662;49.310;8.134;2023-05-21T00:05:06;17.60;99.90
3300;DHT22;1662;49.310;8.134;2023-05-21T00:07:34;17.60;99.90
3300;DHT22;1662;49.310;8.134;2023-05-21T00:10:00;17.70;99.90
3300;DHT22;1662;49.310;8.134;2023-05-21T00:12:26;17.90;99.90
3300;DHT22;1662;49.310;8.134;2023-05-21T00:14:51;17.80;99.90
3300;DHT22;1662;49.310;8.134;2023-05-21T00:17:17;17.80;99.90
3300;DHT22;1662;49.310;8.134;2023-05-21T00:19:43;17.80;99.90
3300;DHT22;1662;49.310;8.134;2023-05-21T00:22:09;17.80;99.90
3300;DHT22;1662;49.310;8.134;2023-05-21T00:24:34;17.80;99.90
3300;DHT22;1662;49.310;8.134;2023-05-21T00:27:00;17.70;99.90
3300;DHT22;1662;49.310;8.134;2023-05-21T00:29:28;17.70;99.90
3300;DHT22;1662;49.310;8.134;2023-05-21T00:31:54;17.60;99.90
3300;DHT22;1662;49.310;8.134;2023-05-21T00:34:22;17.70;99.90
3300;DHT22;1662;49.310;8.134;2023-05-21T00:36:48;17.80;99.90
3300;DHT22;1662;49.310;8.134;2023-05-21T00:39:14;17.70;99.90
3300;DHT22;1662;49.310;8.134;2023-05-21T00:41:40;17.80;99.90
3300;DHT22;1662;49.310;8.134;2023-05-21T00:44:08;17.70;99.90
3300;DHT22;1662;49.310;8.134;2023-05-21T00:46:36;17.60;99.90
3300;DHT22;1662;49.310;8.134;2023-05-21T00:49:01;17.60;99.90
3300;DHT22;1662;49.310;8.134;2023-05-21T00:51:27;17.60;99.90
3300;DHT22;1662;49.310;8.134;2023-05-21T00:53:55;17.80;99.90
3300;DHT22;1662;49.310;8.134;2023-05-21T00:56:22;17.80;99.90
3300;DHT22;1662;49.310;8.134;2023-05-21T00:58:49;17.70;99.90
3300;DHT22;1662;49.310;8.134;2023-05-21T01:01:16;17.70;99.90
3300;DHT22;1662;49.310;8.134;2023-05-21T01:03:43;17.70;99.90
3300;DHT22;1662;49.310;8.134;2023-05-21T01:06:09;17.60;99.90
3300;DHT22;1662;49.310;8.134;2023-05-21T01:08:36;17.60;99.90
3300;DHT22;1662;49.310;8.134;2023-05-21T01:11:06;17.60;99.90
3300;DHT22;1662;49.310;8.134;2023-05-21T01:13:35;17.70;99.90
3300;DHT22;1662;49.310;8.134;2023-05-21T01:16:02;17.70;99.90
3300;DHT22;1662;49.310;8.134;2023-05-21T01:18:31;17.60;99.90
3300;DHT22;1662;49.310;8.134;2023-05-21T01:21:00;17.60;99.90
3300;DHT22;1662;49.310;8.134;2023-05-21T01:23:26;17.60;99.90
3300;DHT22;1662;49.310;8.134;2023-05-21T01:25:52;17.50;99.90
3300;DHT22;1662;49.310;8.134;2023-05-21T01:28:17;17.40;99.90
3300;DHT22;1662;49.310;8.134;2023-05-21T01:30:45;17.40;99.90
3300;DHT22;1662;49.310;8.134;2023-05-21T01:33:17;17.40;99.90
3300;DHT22;1662;49.310;8.134;2023-05-21T01:40:57;17.50;99.90
3300;DHT22;1662;49.310;8.134;2023-05-21T01:43:26;17.50;99.90
3300;DHT22;1662;49.310;8.134;2023-05-21T01:45:54;17.30;99.90
3300;DHT22;1662;49.310;8.134;2023-05-21T01:48:23;17.40;99.90
3300;DHT22;1662;49.310;8.134;2023-05-21T01:50:51;17.50;99.90
3300;DHT22;1662;49.310;8.134;2023-05-21T01:53:19;17.50;99.90
3300;DHT22;1662;49.310;8.134;2023-05-21T01:55:45;17.50;99.90
3300;DHT22;1662;49.310;8.134;2023-05-21T01:58:11;17.40;99.90
3300;DHT22;1662;49.310;8.134;2023-05-21T02:00:37;17.40;99.90
3300;DHT22;1662;49.310;8.134;2023-05-21T02:03:04;17.30;99.90
3300;DHT22;1662;49.310;8.134;2023-05-21T02:05:30;17.30;99.90
3300;DHT22;1662;49.310;8.134;2023-05-21T02:07:56;17.20;99.90
3300;DHT22;1662;49.310;8.134;2023-05-21T02:10:24;17.30;99.90
3300;DHT22;1662;49.310;8.134;2023-05-21T02:15:16;17.20;99.90
3300;DHT22;1662;49.310;8.134;2023-05-21T02:17:44;17.10;99.90
3300;DHT22;1662;49.310;8.134;2023-05-21T02:20:11;17.10;99.90
3300;DHT22;1662;49.310;8.134;2023-05-21T02:22:42;17.10;99.90
3300;DHT22;1662;49.310;8.134;2023-05-21T02:25:09;17.10;99.90
3300;DHT22;1662;49.310;8.134;2023-05-21T02:27:36;17.10;99.90
3300;DHT22;1662;49.310;8.134;2023-05-21T02:30:03;17.10;99.90
3300;DHT22;1662;49.310;8.134;2023-05-21T02:32:30;17.10;99.90
3300;DHT22;1662;49.310;8.134;2023-05-21T02:34:59;17.10;99.90
3300;DHT22;1662;49.310;8.134;2023-05-21T02:37:26;17.10;99.90
3300;DHT22;1662;49.310;8.134;2023-05-21T02:39:55;17.00;99.90
3300;DHT22;1662;49.310;8.134;2023-05-21T02:42:24;17.00;99.90
3300;DHT22;1662;49.310;8.134;2023-05-21T02:44:50;17.10;99.90
3300;DHT22;1662;49.310;8.134;2023-05-21T02:47:17;17.10;99.90
3300;DHT22;1662;49.310;8.134;2023-05-21T02:49:43;17.10;99.90
3300;DHT22;1662;49.310;8.134;2023-05-21T02:52:08;17.10;99.90
3300;DHT22;1662;49.310;8.134;2023-05-21T02:54:34;17.20;99.90
3300;DHT22;1662;49.310;8.134;2023-05-21T02:56:59;17.20;99.90
3300;DHT22;1662;49.310;8.134;2023-05-21T02:59:25;17.10;99.90
3300;DHT22;1662;49.310;8.134;2023-05-21T03:01:51;17.20;99.90
3300;DHT22;1662;49.310;8.134;2023-05-21T03:04:19;17.20;99.90
3300;DHT22;1662;49.310;8.134;2023-05-21T03:06:48;17.20;99.90
3300;DHT22;1662;49.310;8.134;2023-05-21T03:09:16;17.20;99.90
3300;DHT22;1662;49.310;8.134;2023-05-21T03:11:42;17.10;99.90
3300;DHT22;1662;49.310;8.134;2023-05-21T03:14:08;17.10;99.90
3300;DHT22;1662;49.310;8.134;2023-05-21T03:16:34;17.30;99.90
3300;DHT22;1662;49.310;8.134;2023-05-21T03:19:00;17.20;99.90
3300;DHT22;1662;49.310;8.134;2023-05-21T03:21:26;17.10;99.90
3300;DHT22;1662;49.310;8.134;2023-05-21T03:23:54;17.00;99.90
3300;DHT22;1662;49.310;8.134;2023-05-21T03:26:23;16.90;99.90
3300;DHT22;1662;49.310;8.134;2023-05-21T03:28:49;17.00;99.90
3300;DHT22;1662;49.310;8.134;2023-05-21T03:31:18;17.00;99.90
3300;DHT22;1662;49.310;8.134;2023-05-21T03:33:43;16.90;99.90
3300;DHT22;1662;49.310;8.134;2023-05-21T03:36:09;16.90;99.90
3300;DHT22;1662;49.310;8.134;2023-05-21T03:38:34;16.90;99.90
3300;DHT22;1662;49.310;8.134;2023-05-21T03:41:02;16.90;99.90
3300;DHT22;1662;49.310;8.134;2023-05-21T03:43:28;16.90;99.90
3300;DHT22;1662;49.310;8.134;2023-05-21T03:45:53;16.80;99.90
3300;DHT22;1662;49.310;8.134;2023-05-21T03:48:19;16.70;99.90
3300;DHT22;1662;49.310;8.134;2023-05-21T03:50:45;16.70;99.90
3300;DHT22;1662;49.310;8.134;2023-05-21T03:53:11;16.80;99.90
3300;DHT22;1662;49.310;8.134;2023-05-21T03:55:37;16.80;99.90
3300;DHT22;1662;49.310;8.134;2023-05-21T03:58:03;16.70;99.90
3300;DHT22;1662;49.310;8.134;2023-05-21T04:00:29;16.70;99.90
3300;DHT22;1662;49.310;8.134;2023-05-21T04:02:57;16.80;99.90
3300;DHT22;1662;49.310;8.134;2023-05-21T04:05:22;16.80;99.90
3300;DHT22;1662;49.310;8.134;2023-05-21T04:07:48;16.90;99.90
3300;DHT22;1662;49.310;8.134;2023-05-21T04:10:14;16.90;99.90
3300;DHT22;1662;49.310;8.134;2023-05-21T04:12:40;16.90;99.90
3300;DHT22;1662;49.310;8.134;2023-05-21T04:15:06;16.90;99.90
3300;DHT22;1662;49.310;8.134;2023-05-21T04:17:32;16.90;99.90
3300;DHT22;1662;49.310;8.134;2023-05-21T04:19:59;16.90;99.90
3300;DHT22;1662;49.310;8.134;2023-05-21T04:22:24;16.90;99.90
3300;DHT22;1662;49.310;8.134;2023-05-21T04:24:52;17.30;99.90
3300;DHT22;1662;49.310;8.134;2023-05-21T04:27:22;16.90;99.90
3300;DHT22;1662;49.310;8.134;2023-05-21T04:29:49;16.90;99.90
3300;DHT22;1662;49.310;8.134;2023-05-21T04:32:15;16.90;99.90
3300;DHT22;1662;49.310;8.134;2023-05-21T04:34:42;16.80;99.90
3300;DHT22;1662;49.310;8.134;2023-05-21T04:37:08;17.00;99.90
3300;DHT22;1662;49.310;8.134;2023-05-21T04:39:34;16.80;99.90
3300;DHT22;1662;49.310;8.134;2023-05-21T04:42:00;16.80;99.90
3300;DHT22;1662;49.310;8.134;2023-05-21T04:44:30;16.80;99.90
3300;DHT22;1662;49.310;8.134;2023-05-21T04:46:55;16.80;99.90
3300;DHT22;1662;49.310;8.134;2023-05-21T04:49:22;16.90;99.90
3300;DHT22;1662;49.310;8.134;2023-05-21T04:51:47;16.90;99.90
3300;DHT22;1662;49.310;8.134;2023-05-21T04:54:14;16.90;99.90
3300;DHT22;1662;49.310;8.134;2023-05-21T04:56:39;16.90;99.90
3300;DHT22;1662;49.310;8.134;2023-05-21T04:59:05;16.90;99.90
3300;DHT22;1662;49.310;8.134;2023-05-21T05:01:32;16.90;99.90
3300;DHT22;1662;49.310;8.134;2023-05-21T05:03:59;17.00;99.90
3300;DHT22;1662;49.310;8.134;2023-05-21T05:06:25;17.10;99.90
3300;DHT22;1662;49.310;8.134;2023-05-21T05:08:51;17.20;99.90
3300;DHT22;1662;49.310;8.134;2023-05-21T05:11:17;17.20;99.90
3300;DHT22;1662;49.310;8.134;2023-05-21T05:13:42;17.20;99.90
3300;DHT22;1662;49.310;8.134;2023-05-21T05:16:08;17.30;99.90
3300;DHT22;1662;49.310;8.134;2023-05-21T05:18:34;17.30;99.90
3300;DHT22;1662;49.310;8.134;2023-05-21T05:21:03;17.30;99.90
3300;DHT22;1662;49.310;8.134;2023-05-21T05:23:29;17.40;99.90
3300;DHT22;1662;49.310;8.134;2023-05-21T05:25:55;17.40;99.90
3300;DHT22;1662;49.310;8.134;2023-05-21T05:28:20;17.50;99.90
3300;DHT22;1662;49.310;8.134;2023-05-21T05:30:46;17.50;99.90
3300;DHT22;1662;49.310;8.134;2023-05-21T05:33:11;17.60;99.90
3300;DHT22;1662;49.310;8.134;2023-05-21T05:35:38;17.60;99.90
3300;DHT22;1662;49.310;8.134;2023-05-21T05:38:06;17.50;99.90
3300;DHT22;1662;49.310;8.134;2023-05-21T05:40:33;17.60;99.90
3300;DHT22;1662;49.310;8.134;2023-05-21T05:42:58;17.70;99.90
3300;DHT22;1662;49.310;8.134;2023-05-21T05:45:24;17.70;99.90
3300;DHT22;1662;49.310;8.134;2023-05-21T05:47:51;17.80;99.90
3300;DHT22;1662;49.310;8.134;2023-05-21T05:50:16;17.80;99.90
3300;DHT22;1662;49.310;8.134;2023-05-21T05:52:45;17.90;99.90
3300;DHT22;1662;49.310;8.134;2023-05-21T05:55:13;17.90;99.90
3300;DHT22;1662;49.310;8.134;2023-05-21T06:04:27;17.90;99.90
3300;DHT22;1662;49.310;8.134;2023-05-21T06:06:57;18.20;99.90
3300;DHT22;1662;49.310;8.134;2023-05-21T06:09:24;18.80;99.90
3300;DHT22;1662;49.310;8.134;2023-05-21T06:11:50;17.90;99.90
3300;DHT22;1662;49.310;8.134;2023-05-21T06:14:16;18.40;99.90
3300;DHT22;1662;49.310;8.134;2023-05-21T06:16:42;17.90;99.90
3300;DHT22;1662;49.310;8.134;2023-05-21T06:19:07;18.20;99.90
3300;DHT22;1662;49.310;8.134;2023-05-21T06:21:33;18.70;99.90
3300;DHT22;1662;49.310;8.134;2023-05-21T06:23:59;18.40;99.90
3300;DHT22;1662;49.310;8.134;2023-05-21T06:26:25;19.20;99.90
3300;DHT22;1662;49.310;8.134;2023-05-21T06:28:51;19.20;99.90
3300;DHT22;1662;49.310;8.134;2023-05-21T06:31:16;18.30;99.90
3300;DHT22;1662;49.310;8.134;2023-05-21T06:33:43;18.40;99.90
3300;DHT22;1662;49.310;8.134;2023-05-21T06:36:08;17.10;99.90
3300;DHT22;1662;49.310;8.134;2023-05-21T06:38:35;18.50;99.90
3300;DHT22;1662;49.310;8.134;2023-05-21T06:41:01;18.10;99.90
3300;DHT22;1662;49.310;8.134;2023-05-21T06:43:28;18.40;99.90
3300;DHT22;1662;49.310;8.134;2023-05-21T06:45:54;18.40;99.90
3300;DHT22;1662;49.310;8.134;2023-05-21T06:48:20;19.10;99.90
3300;DHT22;1662;49.310;8.134;2023-05-21T06:50:45;19.60;99.90
3300;DHT22;1662;49.310;8.134;2023-05-21T06:53:11;18.80;99.90
3300;DHT22;1662;49.310;8.134;2023-05-21T06:55:40;18.90;99.90
3300;DHT22;1662;49.310;8.134;2023-05-21T06:58:09;18.80;99.90
3300;DHT22;1662;49.310;8.134;2023-05-21T07:00:35;19.30;99.90
3300;DHT22;1662;49.310;8.134;2023-05-21T07:03:01;18.50;99.90
3300;DHT22;1662;49.310;8.134;2023-05-21T07:05:27;19.70;99.90
3300;DHT22;1662;49.310;8.134;2023-05-21T07:07:53;18.40;99.90
3300;DHT22;1662;49.310;8.134;2023-05-21T07:10:19;18.80;99.90
3300;DHT22;1662;49.310;8.134;2023-05-21T07:12:44;19.00;99.90
3300;DHT22;1662;49.310;8.134;2023-05-21T07:15:10;18.80;99.90
3300;DHT22;1662;49.310;8.134;2023-05-21T07:17:36;18.80;99.90
3300;DHT22;1662;49.310;8.134;2023-05-21T07:20:05;18.60;99.90
3300;DHT22;1662;49.310;8.134;2023-05-21T07:22:53;19.30;99.90
3300;DHT22;1662;49.310;8.134;2023-05-21T07:25:37;19.30;99.90
3300;DHT22;1662;49.310;8.134;2023-05-21T07:28:05;19.30;99.90
3300;DHT22;1662;49.310;8.134;2023-05-21T07:30:54;19.60;99.90
3300;DHT22;1662;49.310;8.134;2023-05-21T07:34:22;19.30;99.90
3300;DHT22;1662;49.310;8.134;2023-05-21T07:36:53;19.00;99.90
3300;DHT22;1662;49.310;8.134;2023-05-21T07:39:31;19.80;99.90
3300;DHT22;1662;49.310;8.134;2023-05-21T07:42:17;20.40;99.90
3300;DHT22;1662;49.310;8.134;2023-05-21T07:44:51;19.20;99.90
3300;DHT22;1662;49.310;8.134;2023-05-21T07:47:38;19.10;99.90
3300;DHT22;1662;49.310;8.134;2023-05-21T07:50:10;19.70;99.90
3300;DHT22;1662;49.310;8.134;2023-05-21T07:52:43;19.20;99.90
3300;DHT22;1662;49.310;8.134;2023-05-21T07:55:18;19.80;99.90
3300;DHT22;1662;49.310;8.134;2023-05-21T07:57:48;19.80;99.90
3300;DHT22;1662;49.310;8.134;2023-05-21T08:00:47;19.80;99.90
3300;DHT22;1662;49.310;8.134;2023-05-21T08:03:34;20.40;99.90
3300;DHT22;1662;49.310;8.134;2023-05-21T08:06:20;19.90;99.90
3300;DHT22;1662;49.310;8.134;2023-05-21T08:09:39;20.50;99.90
3300;DHT22;1662;49.310;8.134;2023-05-21T08:12:45;20.30;99.90
3300;DHT22;1662;49.310;8.134;2023-05-21T08:15:29;20.10;99.90
3300;DHT22;1662;49.310;8.134;2023-05-21T08:18:04;20.00;99.90
3300;DHT22;1662;49.310;8.134;2023-05-21T08:20:51;20.80;99.90
3300;DHT22;1662;49.310;8.134;2023-05-21T08:23:33;20.90;99.90
3300;DHT22;1662;49.310;8.134;2023-05-21T08:26:08;20.30;99.90
3300;DHT22;1662;49.310;8.134;2023-05-21T08:28:39;19.90;99.90
3300;DHT22;1662;49.310;8.134;2023-05-21T08:31:29;20.40;99.90
3300;DHT22;1662;49.310;8.134;2023-05-21T08:34:00;21.00;99.90
3300;DHT22;1662;49.310;8.134;2023-05-21T08:36:27;21.10;99.90
3300;DHT22;1662;49.310;8.134;2023-05-21T08:38:56;20.50;99.90
3300;DHT22;1662;49.310;8.134;2023-05-21T08:41:38;21.30;99.90
3300;DHT22;1662;49.310;8.134;2023-05-21T08:47:55;20.80;99.90
3300;DHT22;1662;49.310;8.134;2023-05-21T08:50:53;21.00;99.90
3300;DHT22;1662;49.310;8.134;2023-05-21T08:53:42;20.80;99.90
3300;DHT22;1662;49.310;8.134;2023-05-21T08:56:30;20.90;99.90
3300;DHT22;1662;49.310;8.134;2023-05-21T08:59:35;21.10;99.90
3300;DHT22;1662;49.310;8.134;2023-05-21T09:16:22;21.30;99.90
3300;DHT22;1662;49.310;8.134;2023-05-21T09:42:53;21.40;99.90
3300;DHT22;1662;49.310;8.134;2023-05-21T09:46:07;21.40;99.90
3300;DHT22;1662;49.310;8.134;2023-05-21T09:48:39;22.50;99.90
3300;DHT22;1662;49.310;8.134;2023-05-21T09:51:10;21.90;99.90
3300;DHT22;1662;49.310;8.134;2023-05-21T09:54:03;21.80;99.90
3300;DHT22;1662;49.310;8.134;2023-05-21T10:00:03;22.00;99.90
3300;DHT22;1662;49.310;8.134;2023-05-21T10:02:49;22.10;99.90
3300;DHT22;1662;49.310;8.134;2023-05-21T10:05:56;22.10;99.90
3300;DHT22;1662;49.310;8.134;2023-05-21T11:00:20;24.00;99.90
3300;DHT22;1662;49.310;8.134;2023-05-21T11:02:47;23.90;99.90
3300;DHT22;1662;49.310;8.134;2023-05-21T11:05:13;24.30;99.90
3300;DHT22;1662;49.310;8.134;2023-05-21T11:07:52;23.70;99.90
3300;DHT22;1662;49.310;8.134;2023-05-21T11:10:29;23.90;99.90
3300;DHT22;1662;49.310;8.134;2023-05-21T11:13:07;24.50;99.90
3300;DHT22;1662;49.310;8.134;2023-05-21T11:21:14;24.70;99.90
3300;DHT22;1662;49.310;8.134;2023-05-21T11:23:54;24.70;99.90
3300;DHT22;1662;49.310;8.134;2023-05-21T11:26:26;24.30;99.90
3300;DHT22;1662;49.310;8.134;2023-05-21T11:31:31;25.40;99.90
3300;DHT22;1662;49.310;8.134;2023-05-21T11:34:20;24.40;99.90
3300;DHT22;1662;49.310;8.134;2023-05-21T11:42:48;24.50;99.90
3300;DHT22;1662;49.310;8.134;2023-05-21T11:45:20;24.80;99.90
3300;DHT22;1662;49.310;8.134;2023-05-21T11:47:47;24.80;99.90
3300;DHT22;1662;49.310;8.134;2023-05-21T11:50:14;25.50;99.90
3300;DHT22;1662;49.310;8.134;2023-05-21T11:55:08;24.90;99.90
3300;DHT22;1662;49.310;8.134;2023-05-21T11:57:36;25.20;99.90
3300;DHT22;1662;49.310;8.134;2023-05-21T12:00:03;25.10;99.90
3300;DHT22;1662;49.310;8.134;2023-05-21T12:02:42;25.30;99.90
3300;DHT22;1662;49.310;8.134;2023-05-21T12:05:08;25.30;99.90
3300;DHT22;1662;49.310;8.134;2023-05-21T12:07:34;25.80;99.90
3300;DHT22;1662;49.310;8.134;2023-05-21T12:10:00;25.50;99.90
3300;DHT22;1662;49.310;8.134;2023-05-21T12:12:26;25.60;99.90
3300;DHT22;1662;49.310;8.134;2023-05-21T12:14:54;25.70;99.90
3300;DHT22;1662;49.310;8.134;2023-05-21T12:17:21;25.80;99.90
3300;DHT22;1662;49.310;8.134;2023-05-21T12:19:52;25.70;99.90
3300;DHT22;1662;49.310;8.134;2023-05-21T12:22:18;25.50;99.90
3300;DHT22;1662;49.310;8.134;2023-05-21T12:24:45;25.60;99.90
3300;DHT22;1662;49.310;8.134;2023-05-21T12:27:12;25.40;99.90
3300;DHT22;1662;49.310;8.134;2023-05-21T12:29:39;25.80;99.90
3300;DHT22;1662;49.310;8.134;2023-05-21T12:32:08;26.10;99.90
3300;DHT22;1662;49.310;8.134;2023-05-21T12:34:46;26.10;99.90
3300;DHT22;1662;49.310;8.134;2023-05-21T12:37:16;26.00;99.90
3300;DHT22;1662;49.310;8.134;2023-05-21T12:39:45;26.10;99.90
3300;DHT22;1662;49.310;8.134;2023-05-21T12:42:11;24.70;99.90
3300;DHT22;1662;49.310;8.134;2023-05-21T12:44:38;25.60;99.90
3300;DHT22;1662;49.310;8.134;2023-05-21T12:47:05;25.30;99.90
3300;DHT22;1662;49.310;8.134;2023-05-21T12:49:35;25.80;99.90
3300;DHT22;1662;49.310;8.134;2023-05-21T12:52:08;25.80;99.90
3300;DHT22;1662;49.310;8.134;2023-05-21T12:54:40;26.20;99.90
3300;DHT22;1662;49.310;8.134;2023-05-21T12:57:13;25.50;99.90
3300;DHT22;1662;49.310;8.134;2023-05-21T12:59:47;26.40;99.90
3300;DHT22;1662;49.310;8.134;2023-05-21T13:02:28;26.10;99.90
3300;DHT22;1662;49.310;8.134;2023-05-21T13:05:04;26.20;99.90
3300;DHT22;1662;49.310;8.134;2023-05-21T13:07:32;26.70;99.90
3300;DHT22;1662;49.310;8.134;2023-05-21T13:09:59;26.80;99.90
3300;DHT22;1662;49.310;8.134;2023-05-21T13:12:27;26.60;99.90
3300;DHT22;1662;49.310;8.134;2023-05-21T13:14:58;26.40;99.90
3300;DHT22;1662;49.310;8.134;2023-05-21T13:17:25;26.40;99.90
3300;DHT22;1662;49.310;8.134;2023-05-21T13:20:10;26.50;99.90
3300;DHT22;1662;49.310;8.134;2023-05-21T13:22:38;26.90;99.90
3300;DHT22;1662;49.310;8.134;2023-05-21T13:25:11;27.40;99.90
3300;DHT22;1662;49.310;8.134;2023-05-21T13:27:40;25.50;99.90
3300;DHT22;1662;49.310;8.134;2023-05-21T13:30:06;26.80;99.90
3300;DHT22;1662;49.310;8.134;2023-05-21T13:32:33;27.00;99.90
3300;DHT22;1662;49.310;8.134;2023-05-21T13:34:59;26.90;99.90
3300;DHT22;1662;49.310;8.134;2023-05-21T13:37:25;27.40;99.90
3300;DHT22;1662;49.310;8.134;2023-05-21T13:39:50;27.30;99.90
3300;DHT22;1662;49.310;8.134;2023-05-21T13:42:16;27.50;99.90
3300;DHT22;1662;49.310;8.134;2023-05-21T13:44:42;26.50;99.90
3300;DHT22;1662;49.310;8.134;2023-05-21T13:47:08;27.10;99.90
3300;DHT22;1662;49.310;8.134;2023-05-21T13:49:35;27.40;99.90
3300;DHT22;1662;49.310;8.134;2023-05-21T13:52:01;27.50;99.90
3300;DHT22;1662;49.310;8.134;2023-05-21T13:54:28;26.80;99.90
3300;DHT22;1662;49.310;8.134;2023-05-21T13:56:54;27.00;99.90
3300;DHT22;1662;49.310;8.134;2023-05-21T13:59:20;27.50;99.90
3300;DHT22;1662;49.310;8.134;2023-05-21T14:01:46;27.50;99.90
3300;DHT22;1662;49.310;8.134;2023-05-21T14:04:15;28.00;99.90
3300;DHT22;1662;49.310;8.134;2023-05-21T14:06:41;27.60;99.90
3300;DHT22;1662;49.310;8.134;2023-05-21T14:09:07;27.80;99.90
3300;DHT22;1662;49.310;8.134;2023-05-21T14:11:32;27.90;99.90
3300;DHT22;1662;49.310;8.134;2023-05-21T14:13:59;28.30;99.90
3300;DHT22;1662;49.310;8.134;2023-05-21T14:16:25;28.10;99.90
3300;DHT22;1662;49.310;8.134;2023-05-21T14:18:56;27.60;99.90
3300;DHT22;1662;49.310;8.134;2023-05-21T14:21:22;28.30;99.90
3300;DHT22;1662;49.310;8.134;2023-05-21T14:26:15;28.70;99.90
3300;DHT22;1662;49.310;8.134;2023-05-21T14:28:42;28.80;99.90
3300;DHT22;1662;49.310;8.134;2023-05-21T14:31:08;28.60;99.90
3300;DHT22;1662;49.310;8.134;2023-05-21T14:36:01;28.40;99.90
3300;DHT22;1662;49.310;8.134;2023-05-21T14:52:37;28.60;99.90
3300;DHT22;1662;49.310;8.134;2023-05-21T14:55:03;29.00;99.90
3300;DHT22;1662;49.310;8.134;2023-05-21T14:57:30;29.00;99.90
3300;DHT22;1662;49.310;8.134;2023-05-21T14:59:55;28.70;99.90
3300;DHT22;1662;49.310;8.134;2023-05-21T15:02:21;28.60;99.90
3300;DHT22;1662;49.310;8.134;2023-05-21T15:04:47;29.30;99.90
3300;DHT22;1662;49.310;8.134;2023-05-21T15:07:13;28.70;99.90
3300;DHT22;1662;49.310;8.134;2023-05-21T15:09:39;29.40;99.90
3300;DHT22;1662;49.310;8.134;2023-05-21T15:12:05;28.90;99.90
3300;DHT22;1662;49.310;8.134;2023-05-21T15:14:30;29.50;99.90
3300;DHT22;1662;49.310;8.134;2023-05-21T15:16:56;29.50;99.90
3300;DHT22;1662;49.310;8.134;2023-05-21T15:19:22;29.30;99.90
3300;DHT22;1662;49.310;8.134;2023-05-21T15:21:48;29.30;99.90
3300;DHT22;1662;49.310;8.134;2023-05-21T15:24:16;29.20;99.90
3300;DHT22;1662;49.310;8.134;2023-05-21T15:26:42;29.10;99.90
3300;DHT22;1662;49.310;8.134;2023-05-21T15:29:10;29.90;99.90
3300;DHT22;1662;49.310;8.134;2023-05-21T15:31:36;29.10;99.90
3300;DHT22;1662;49.310;8.134;2023-05-21T15:34:03;29.70;99.90
3300;DHT22;1662;49.310;8.134;2023-05-21T15:36:29;29.40;99.90
3300;DHT22;1662;49.310;8.134;2023-05-21T15:38:55;29.30;99.90
3300;DHT22;1662;49.310;8.134;2023-05-21T15:41:21;30.10;99.90
3300;DHT22;1662;49.310;8.134;2023-05-21T15:43:47;29.90;99.90
3300;DHT22;1662;49.310;8.134;2023-05-21T15:46:13;30.10;99.90
3300;DHT22;1662;49.310;8.134;2023-05-21T15:48:39;29.20;99.90
3300;DHT22;1662;49.310;8.134;2023-05-21T15:51:04;28.40;99.90
3300;DHT22;1662;49.310;8.134;2023-05-21T15:53:30;29.50;99.90
3300;DHT22;1662;49.310;8.134;2023-05-21T15:55:56;29.60;99.90
3300;DHT22;1662;49.310;8.134;2023-05-21T15:58:22;29.20;99.90
3300;DHT22;1662;49.310;8.134;2023-05-21T16:00:48;29.80;99.90
3300;DHT22;1662;49.310;8.134;2023-05-21T16:05:40;29.60;99.90
3300;DHT22;1662;49.310;8.134;2023-05-21T16:08:06;29.90;99.90
3300;DHT22;1662;49.310;8.134;2023-05-21T16:10:38;29.50;99.90
3300;DHT22;1662;49.310;8.134;2023-05-21T16:13:04;29.90;99.90
3300;DHT22;1662;49.310;8.134;2023-05-21T16:15:30;30.00;99.90
3300;DHT22;1662;49.310;8.134;2023-05-21T16:17:56;29.70;99.90
3300;DHT22;1662;49.310;8.134;2023-05-21T16:20:22;29.30;99.90
3300;DHT22;1662;49.310;8.134;2023-05-21T16:22:48;29.50;99.90
3300;DHT22;1662;49.310;8.134;2023-05-21T16:25:14;30.30;99.90
3300;DHT22;1662;49.310;8.134;2023-05-21T16:27:40;29.70;99.90
3300;DHT22;1662;49.310;8.134;2023-05-21T16:30:09;29.60;99.90
3300;DHT22;1662;49.310;8.134;2023-05-21T16:32:35;30.10;99.90
3300;DHT22;1662;49.310;8.134;2023-05-21T16:35:01;29.30;99.90
3300;DHT22;1662;49.310;8.134;2023-05-21T16:37:26;29.40;99.90
3300;DHT22;1662;49.310;8.134;2023-05-21T16:39:52;28.90;99.90
3300;DHT22;1662;49.310;8.134;2023-05-21T16:42:18;29.70;99.90
3300;DHT22;1662;49.310;8.134;2023-05-21T16:44:44;29.70;99.90
3300;DHT22;1662;49.310;8.134;2023-05-21T16:47:10;29.80;99.90
3300;DHT22;1662;49.310;8.134;2023-05-21T16:52:02;29.40;99.90
3300;DHT22;1662;49.310;8.134;2023-05-21T16:54:30;29.10;99.90
3300;DHT22;1662;49.310;8.134;2023-05-21T16:56:56;29.80;99.90
3300;DHT22;1662;49.310;8.134;2023-05-21T16:59:22;28.80;99.90
3300;DHT22;1662;49.310;8.134;2023-05-21T17:01:48;29.40;99.90
3300;DHT22;1662;49.310;8.134;2023-05-21T17:04:14;29.40;99.90
3300;DHT22;1662;49.310;8.134;2023-05-21T17:06:40;29.20;99.90
3300;DHT22;1662;49.310;8.134;2023-05-21T17:09:05;29.40;99.90
3300;DHT22;1662;49.310;8.134;2023-05-21T17:11:31;28.50;99.90
3300;DHT22;1662;49.310;8.134;2023-05-21T17:13:59;29.00;99.90
3300;DHT22;1662;49.310;8.134;2023-05-21T17:16:25;28.90;99.90
3300;DHT22;1662;49.310;8.134;2023-05-21T17:18:51;28.80;99.90
3300;DHT22;1662;49.310;8.134;2023-05-21T17:21:17;28.50;99.90
3300;DHT22;1662;49.310;8.134;2023-05-21T17:23:44;28.50;99.90
3300;DHT22;1662;49.310;8.134;2023-05-21T17:26:10;29.10;99.90
3300;DHT22;1662;49.310;8.134;2023-05-21T17:28:37;29.10;99.90
3300;DHT22;1662;49.310;8.134;2023-05-21T17:31:06;28.80;99.90
3300;DHT22;1662;49.310;8.134;2023-05-21T17:33:32;27.90;99.90
3300;DHT22;1662;49.310;8.134;2023-05-21T17:35:58;28.30;99.90
3300;DHT22;1662;49.310;8.134;2023-05-21T17:38:25;28.50;99.90
3300;DHT22;1662;49.310;8.134;2023-05-21T17:40:51;28.50;99.90
3300;DHT22;1662;49.310;8.134;2023-05-21T17:43:17;27.80;99.90
3300;DHT22;1662;49.310;8.134;2023-05-21T17:45:43;26.40;99.90
3300;DHT22;1662;49.310;8.134;2023-05-21T17:48:09;27.60;99.90
3300;DHT22;1662;49.310;8.134;2023-05-21T17:50:36;27.80;99.90
3300;DHT22;1662;49.310;8.134;2023-05-21T17:53:02;27.60;99.90
3300;DHT22;1662;49.310;8.134;2023-05-21T17:55:28;27.20;99.90
3300;DHT22;1662;49.310;8.134;2023-05-21T17:57:54;27.40;99.90
3300;DHT22;1662;49.310;8.134;2023-05-21T18:00:20;27.50;99.90
3300;DHT22;1662;49.310;8.134;2023-05-21T18:02:48;27.70;99.90
3300;DHT22;1662;49.310;8.134;2023-05-21T18:05:14;27.60;99.90
3300;DHT22;1662;49.310;8.134;2023-05-21T18:07:39;27.10;99.90
3300;DHT22;1662;49.310;8.134;2023-05-21T18:10:06;27.00;99.90
3300;DHT22;1662;49.310;8.134;2023-05-21T18:12:31;26.90;99.90
3300;DHT22;1662;49.310;8.134;2023-05-21T18:14:57;26.90;99.90
3300;DHT22;1662;49.310;8.134;2023-05-21T18:17:23;26.40;99.90
3300;DHT22;1662;49.310;8.134;2023-05-21T18:19:49;26.50;99.90
3300;DHT22;1662;49.310;8.134;2023-05-21T18:22:15;26.20;99.90
3300;DHT22;1662;49.310;8.134;2023-05-21T18:24:41;26.20;99.90
3300;DHT22;1662;49.310;8.134;2023-05-21T18:27:07;26.00;99.90
3300;DHT22;1662;49.310;8.134;2023-05-21T18:29:36;25.90;99.90
3300;DHT22;1662;49.310;8.134;2023-05-21T18:32:02;25.80;99.90
3300;DHT22;1662;49.310;8.134;2023-05-21T18:34:28;25.40;99.90
3300;DHT22;1662;49.310;8.134;2023-05-21T18:36:57;25.20;99.90
3300;DHT22;1662;49.310;8.134;2023-05-21T19:03:18;24.40;99.90
3300;DHT22;1662;49.310;8.134;2023-05-21T19:19:47;23.80;99.90
3300;DHT22;1662;49.310;8.134;2023-05-21T19:22:24;23.70;99.90